createdAt,value
2023-03-02T00:00:10.569Z,8.03
2023-03-02T00:02:41.525Z,8.16
2023-03-02T00:05:10.242Z,8.40
2023-03-02T00:07:41.725Z,8.45
2023-03-02T00:10:12.891Z,8.53
2023-03-02T00:12:40.969Z,8.65
2023-03-02T00:15:09.431Z,8.57
2023-03-02T00:17:37.000Z,8.57
2023-03-02T00:20:11.563Z,8.68
2023-03-02T00:22:41.650Z,8.62
2023-03-02T00:25:10.083Z,8.62
2023-03-02T00:27:38.309Z,8.53
2023-03-02T00:30:06.550Z,8.84
2023-03-02T00:32:35.615Z,8.90
2023-03-02T00:35:03.145Z,9.00
2023-03-02T00:37:30.836Z,9.04
2023-03-02T00:39:58.273Z,9.00
2023-03-02T00:42:26.297Z,9.00
2023-03-02T00:44:54.131Z,9.00
2023-03-02T00:47:22.538Z,9.05
2023-03-02T00:49:50.885Z,9.00
2023-03-02T00:52:19.602Z,9.05
2023-03-02T00:54:47.129Z,9.08
2023-03-02T00:57:15.668Z,9.02
2023-03-02T00:59:43.071Z,8.99
2023-03-02T01:02:31.950Z,9.07
2023-03-02T01:04:59.601Z,9.27
2023-03-02T01:07:28.217Z,9.05
2023-03-02T01:09:55.572Z,9.08
2023-03-02T01:12:22.938Z,8.99
2023-03-02T01:14:50.918Z,8.94
2023-03-02T01:17:19.170Z,8.76
2023-03-02T01:19:48.090Z,8.77
2023-03-02T01:22:15.968Z,8.88
2023-03-02T01:24:43.871Z,8.96
2023-03-02T01:27:10.898Z,8.85
2023-03-02T01:29:39.075Z,8.89
2023-03-02T01:32:06.681Z,8.96
2023-03-02T01:34:33.755Z,8.97
2023-03-02T01:37:01.785Z,9.02
2023-03-02T01:39:36.322Z,8.86
2023-03-02T01:44:46.985Z,9.06
2023-03-02T01:47:21.966Z,9.23
2023-03-02T01:49:58.945Z,9.37
2023-03-02T01:52:29.127Z,9.29
2023-03-02T01:55:00.808Z,9.31
2023-03-02T01:57:30.866Z,9.43
2023-03-02T02:00:01.887Z,9.45
2023-03-02T02:02:42.968Z,9.36
2023-03-02T02:05:19.905Z,9.40
2023-03-02T02:07:50.899Z,9.36
2023-03-02T02:10:20.267Z,9.41
2023-03-02T02:12:51.646Z,9.40
2023-03-02T02:15:20.396Z,9.35
2023-03-02T02:17:49.817Z,9.37
2023-03-02T02:20:25.347Z,9.44
2023-03-02T02:23:02.050Z,9.44
2023-03-02T02:25:41.781Z,9.40
2023-03-02T02:28:13.528Z,9.54
2023-03-02T02:30:43.099Z,9.50
2023-03-02T02:33:19.201Z,9.48
2023-03-02T02:35:49.084Z,9.44
2023-03-02T02:38:19.158Z,9.41
2023-03-02T02:40:56.555Z,9.49
2023-03-02T02:43:31.039Z,9.68
2023-03-02T02:46:01.668Z,9.61
2023-03-02T02:48:32.094Z,9.57
2023-03-02T02:51:02.425Z,9.58
2023-03-02T02:53:53.058Z,9.62
2023-03-02T02:56:27.864Z,9.49
2023-03-02T02:58:57.687Z,9.50
2023-03-02T03:01:32.523Z,9.43
2023-03-02T03:04:06.126Z,9.39
2023-03-02T03:06:43.505Z,9.40
2023-03-02T03:09:13.724Z,9.43
2023-03-02T03:11:56.333Z,9.56
2023-03-02T03:14:30.445Z,9.51
2023-03-02T03:17:00.292Z,9.42
2023-03-02T03:19:31.680Z,9.38
2023-03-02T03:22:02.567Z,9.42
2023-03-02T03:24:39.818Z,9.44
2023-03-02T03:27:10.285Z,9.53
2023-03-02T03:29:41.897Z,9.48
2023-03-02T03:32:11.458Z,9.53
2023-03-02T03:34:42.867Z,9.39
2023-03-02T03:37:18.692Z,9.44
2023-03-02T03:39:48.518Z,9.43
2023-03-02T03:42:19.163Z,9.50
2023-03-02T03:44:48.471Z,9.49
2023-03-02T03:47:20.127Z,9.54
2023-03-02T03:49:50.225Z,9.54
2023-03-02T03:52:30.966Z,9.58
2023-03-02T03:55:14.048Z,9.50
2023-03-02T03:57:47.933Z,9.41
2023-03-02T04:00:20.590Z,9.44
2023-03-02T04:02:56.763Z,9.49
2023-03-02T04:12:57.547Z,9.38
2023-03-02T04:15:27.419Z,9.40
2023-03-02T04:17:59.574Z,9.48
2023-03-02T04:20:29.165Z,9.47
2023-03-02T04:23:02.155Z,9.50
2023-03-02T04:25:37.285Z,9.54
2023-03-02T04:28:12.429Z,9.53
2023-03-02T04:30:47.488Z,9.48
2023-03-02T04:33:17.893Z,9.44
2023-03-02T04:35:47.142Z,9.44
2023-03-02T04:38:17.461Z,9.57
2023-03-02T04:40:47.526Z,9.44
2023-03-02T04:43:20.148Z,9.45
2023-03-02T04:45:49.719Z,9.61
2023-03-02T04:48:20.539Z,9.72
2023-03-02T04:50:51.370Z,9.70
2023-03-02T04:53:20.998Z,9.72
2023-03-02T04:55:52.757Z,9.83
2023-03-02T04:58:27.510Z,9.75
2023-03-02T05:01:03.541Z,9.86
2023-03-02T05:03:34.218Z,9.93
2023-03-02T05:06:08.799Z,9.73
2023-03-02T05:08:38.719Z,9.94
2023-03-02T05:11:08.605Z,9.88
2023-03-02T05:13:38.304Z,9.86
2023-03-02T05:16:11.687Z,9.87
2023-03-02T05:18:41.228Z,9.86
2023-03-02T05:21:19.820Z,9.92
2023-03-02T05:23:50.758Z,10.03
2023-03-02T05:26:22.425Z,9.98
2023-03-02T05:28:54.010Z,9.86
2023-03-02T05:31:24.510Z,9.98
2023-03-02T05:33:57.559Z,9.93
2023-03-02T05:36:26.997Z,9.97
2023-03-02T05:38:56.702Z,10.04
2023-03-02T05:41:26.643Z,9.87
2023-03-02T05:43:56.404Z,9.98
2023-03-02T05:46:26.529Z,10.01
2023-03-02T05:48:56.491Z,10.06
2023-03-02T05:51:28.534Z,10.06
2023-03-02T05:53:59.813Z,10.03
2023-03-02T05:56:31.394Z,10.15
2023-03-02T05:59:02.357Z,9.96
2023-03-02T06:01:32.513Z,10.01
2023-03-02T06:04:02.724Z,10.01
2023-03-02T06:06:35.787Z,9.89
2023-03-02T06:09:08.106Z,9.75
2023-03-02T06:11:41.960Z,9.74
2023-03-02T06:14:12.977Z,9.70
2023-03-02T06:16:45.108Z,9.65
2023-03-02T06:19:14.715Z,9.71
2023-03-02T06:21:49.933Z,9.75
2023-03-02T06:24:19.479Z,9.73
2023-03-02T06:26:49.297Z,9.70
2023-03-02T06:29:19.875Z,9.63
2023-03-02T06:31:55.212Z,9.59
2023-03-02T06:34:25.135Z,9.48
2023-03-02T06:36:57.312Z,9.59
2023-03-02T06:39:26.500Z,9.52
2023-03-02T06:41:57.235Z,9.61
2023-03-02T06:44:26.684Z,9.52
2023-03-02T06:46:56.361Z,9.35
2023-03-02T06:49:25.979Z,9.55
2023-03-02T06:51:56.934Z,9.50
2023-03-02T06:54:26.625Z,9.41
2023-03-02T06:56:58.091Z,9.19
2023-03-02T06:59:27.698Z,9.35
2023-03-02T07:02:01.190Z,9.31
2023-03-02T07:04:33.504Z,9.28
2023-03-02T07:07:05.107Z,9.07
2023-03-02T07:09:36.662Z,8.94
2023-03-02T07:12:07.179Z,8.81
2023-03-02T07:14:43.106Z,8.78
2023-03-02T07:17:16.120Z,8.75
2023-03-02T07:19:47.458Z,8.69
2023-03-02T07:22:18.832Z,8.67
2023-03-02T07:24:48.304Z,8.79
2023-03-02T07:27:17.272Z,8.52
2023-03-02T07:29:48.090Z,8.64
2023-03-02T07:32:18.148Z,8.59
2023-03-02T07:34:47.478Z,8.50
2023-03-02T07:37:17.070Z,8.51
2023-03-02T07:39:47.481Z,8.48
2023-03-02T07:42:17.883Z,8.34
2023-03-02T07:44:57.755Z,8.40
2023-03-02T07:47:27.468Z,8.29
2023-03-02T07:49:57.298Z,8.30
2023-03-02T07:52:27.107Z,8.19
2023-03-02T07:54:56.391Z,8.07
2023-03-02T07:57:27.560Z,8.13
2023-03-02T07:59:57.437Z,8.01
2023-03-02T08:02:28.131Z,7.97
2023-03-02T08:04:59.201Z,7.91
2023-03-02T08:07:32.946Z,7.83
2023-03-02T08:10:03.065Z,7.70
2023-03-02T08:12:32.779Z,7.66
2023-03-02T08:15:03.743Z,7.66
2023-03-02T08:17:33.786Z,7.49
2023-03-02T08:20:02.558Z,7.51
2023-03-02T08:22:32.943Z,7.30
2023-03-02T08:25:05.446Z,7.19
2023-03-02T08:27:35.947Z,7.28
2023-03-02T08:30:06.353Z,7.03
2023-03-02T08:32:36.667Z,7.14
2023-03-02T08:35:11.318Z,7.10
2023-03-02T08:37:40.366Z,7.10
2023-03-02T08:40:11.262Z,7.01
2023-03-02T08:42:42.745Z,7.09
2023-03-02T08:45:14.369Z,6.91
2023-03-02T08:47:43.856Z,6.75
2023-03-02T08:50:14.386Z,6.80
2023-03-02T08:52:44.973Z,6.91
2023-03-02T08:55:14.695Z,6.86
2023-03-02T08:57:44.523Z,6.96
2023-03-02T09:00:16.899Z,6.72
2023-03-02T09:02:46.325Z,6.70
2023-03-02T09:05:16.782Z,6.54
2023-03-02T09:07:47.823Z,6.71
2023-03-02T09:10:19.522Z,6.44
2023-03-02T09:12:49.784Z,6.45
2023-03-02T09:15:19.081Z,6.38
2023-03-02T09:17:53.297Z,6.51
2023-03-02T09:20:22.739Z,6.38
2023-03-02T09:22:51.953Z,6.17
2023-03-02T09:25:21.824Z,6.22
2023-03-02T09:27:56.339Z,6.26
2023-03-02T09:30:25.846Z,6.29
2023-03-02T09:32:56.157Z,6.02
2023-03-02T09:35:26.486Z,6.03
2023-03-02T09:37:56.016Z,6.06
2023-03-02T09:40:27.231Z,6.19
2023-03-02T09:43:30.431Z,6.17
2023-03-02T09:46:10.358Z,6.10
2023-03-02T09:48:48.181Z,6.12
2023-03-02T09:51:40.378Z,6.03
2023-03-02T09:54:10.892Z,6.03
2023-03-02T09:56:49.791Z,5.92
2023-03-02T09:59:34.759Z,6.01
2023-03-02T10:02:04.545Z,5.97
2023-03-02T10:04:39.404Z,6.02
2023-03-02T10:07:16.481Z,5.97
2023-03-02T10:09:46.068Z,5.74
2023-03-02T10:12:37.439Z,5.78
2023-03-02T10:15:10.497Z,5.56
2023-03-02T10:17:56.356Z,5.46
2023-03-02T10:20:34.158Z,5.45
2023-03-02T10:23:22.845Z,5.56
2023-03-02T10:26:01.924Z,5.39
2023-03-02T10:28:36.815Z,5.51
2023-03-02T10:31:09.997Z,5.72
2023-03-02T10:33:46.026Z,5.57
2023-03-02T10:36:22.851Z,5.53
2023-03-02T10:38:52.965Z,5.49
2023-03-02T10:41:34.407Z,5.42
2023-03-02T10:44:22.847Z,5.30
2023-03-02T10:46:54.761Z,5.07
2023-03-02T10:49:28.887Z,5.01
2023-03-02T10:52:06.653Z,4.96
2023-03-02T10:54:39.702Z,4.83
2023-03-02T10:57:31.241Z,4.79
2023-03-02T11:00:03.403Z,4.77
2023-03-02T11:02:35.379Z,4.78
2023-03-02T11:05:22.161Z,4.65
2023-03-02T11:07:58.859Z,4.76
2023-03-02T11:10:37.463Z,4.77
2023-03-02T11:13:32.805Z,4.80
2023-03-02T11:16:08.267Z,4.79
2023-03-02T11:18:38.722Z,4.97
2023-03-02T11:21:13.995Z,4.92
2023-03-02T11:23:43.145Z,4.83
2023-03-02T11:26:16.731Z,4.82
2023-03-02T11:29:06.960Z,4.78
2023-03-02T11:31:37.921Z,4.61
2023-03-02T11:34:21.316Z,4.78
2023-03-02T11:37:10.658Z,4.83
2023-03-02T11:39:56.898Z,4.94
2023-03-02T11:42:34.741Z,4.85
2023-03-02T11:45:07.402Z,4.86
2023-03-02T11:47:39.865Z,4.74
2023-03-02T11:50:11.453Z,4.59
2023-03-02T11:53:04.941Z,4.65
2023-03-02T11:55:41.776Z,4.73
2023-03-02T11:58:16.387Z,4.76
2023-03-02T12:00:47.174Z,4.79
2023-03-02T12:03:46.216Z,4.65
2023-03-02T12:06:23.454Z,4.69
2023-03-02T12:09:07.946Z,4.50
2023-03-02T12:11:39.765Z,4.67
2023-03-02T12:14:45.055Z,4.62
2023-03-02T12:17:27.843Z,4.61
2023-03-02T12:20:09.184Z,4.54
2023-03-02T12:22:43.172Z,4.47
2023-03-02T12:25:22.616Z,4.52
2023-03-02T12:27:52.752Z,4.46
2023-03-02T12:30:25.854Z,4.49
2023-03-02T12:33:03.306Z,4.49
2023-03-02T12:35:34.487Z,4.45
2023-03-02T12:38:05.450Z,4.54
2023-03-02T12:40:54.462Z,4.45
2023-03-02T12:43:27.662Z,4.52
2023-03-02T12:46:17.985Z,4.52
2023-03-02T12:48:50.493Z,4.48
2023-03-02T12:51:24.091Z,4.43
2023-03-02T12:54:03.256Z,4.45
2023-03-02T12:56:36.107Z,4.20
2023-03-02T12:59:08.836Z,4.01
2023-03-02T13:01:48.998Z,3.98
2023-03-02T13:04:21.900Z,4.16
2023-03-02T13:06:51.814Z,3.99
2023-03-02T13:09:22.854Z,3.86
2023-03-02T13:11:56.469Z,3.84
2023-03-02T13:14:26.944Z,3.61
2023-03-02T13:17:03.798Z,3.76
2023-03-02T13:19:34.344Z,3.87
2023-03-02T13:22:04.937Z,4.07
2023-03-02T13:24:53.665Z,4.07
2023-03-02T13:27:26.337Z,4.23
2023-03-02T13:29:58.941Z,4.27
2023-03-02T13:32:37.616Z,4.20
2023-03-02T13:35:16.607Z,4.22
2023-03-02T13:37:46.709Z,4.30
2023-03-02T13:40:22.768Z,4.44
2023-03-02T13:42:53.100Z,4.24
2023-03-02T13:45:31.880Z,4.07
2023-03-02T13:48:13.326Z,4.16
2023-03-02T13:50:51.662Z,3.96
2023-03-02T13:53:25.185Z,3.86
2023-03-02T13:55:56.678Z,3.99
2023-03-02T13:58:28.879Z,3.98
2023-03-02T14:00:59.097Z,3.91
2023-03-02T14:03:30.937Z,3.89
2023-03-02T14:06:02.771Z,3.61
2023-03-02T14:08:32.944Z,3.52
2023-03-02T14:11:06.591Z,3.58
2023-03-02T14:13:47.013Z,3.57
2023-03-02T14:16:17.717Z,3.55
2023-03-02T14:18:48.191Z,3.67
2023-03-02T14:21:19.741Z,3.84
2023-03-02T14:23:52.484Z,3.85
2023-03-02T14:26:24.135Z,3.86
2023-03-02T14:29:04.673Z,3.89
2023-03-02T14:31:36.433Z,3.91
2023-03-02T14:34:10.469Z,4.08
2023-03-02T14:36:41.820Z,4.06
2023-03-02T14:39:17.681Z,4.21
2023-03-02T14:41:53.356Z,4.25
2023-03-02T14:44:28.070Z,4.08
2023-03-02T14:46:58.054Z,4.12
2023-03-02T14:49:27.471Z,4.24
2023-03-02T14:52:03.552Z,4.43
2023-03-02T14:54:38.387Z,4.46
2023-03-02T14:57:11.571Z,4.55
2023-03-02T14:59:42.181Z,4.45
2023-03-02T15:02:24.837Z,4.34
2023-03-02T15:05:13.278Z,4.37
2023-03-02T15:07:45.109Z,4.40
2023-03-02T15:10:18.555Z,4.35
2023-03-02T15:12:47.711Z,4.30
2023-03-02T15:15:17.657Z,4.24
2023-03-02T15:17:49.412Z,4.27
2023-03-02T15:20:25.361Z,4.32
2023-03-02T15:22:56.595Z,4.68
2023-03-02T15:25:27.065Z,4.81
2023-03-02T15:27:58.608Z,4.84
2023-03-02T15:30:31.763Z,4.78
2023-03-02T15:33:03.758Z,4.84
2023-03-02T15:35:36.779Z,4.94
2023-03-02T15:38:07.203Z,4.95
2023-03-02T15:40:38.796Z,5.07
2023-03-02T15:50:44.788Z,5.16
2023-03-02T15:53:16.142Z,5.20
2023-03-02T15:55:47.994Z,5.33
2023-03-02T15:58:18.789Z,5.39
2023-03-02T16:00:50.715Z,5.48
2023-03-02T16:03:23.316Z,5.45
2023-03-02T16:05:59.595Z,5.54
2023-03-02T16:08:29.104Z,5.60
2023-03-02T16:11:01.185Z,5.68
2023-03-02T16:13:36.881Z,5.74
2023-03-02T16:16:10.465Z,5.87
2023-03-02T16:18:41.383Z,5.82
2023-03-02T16:21:15.459Z,5.85
2023-03-02T16:23:44.960Z,5.68
2023-03-02T16:26:17.886Z,5.68
2023-03-02T16:28:47.157Z,5.91
2023-03-02T16:31:18.534Z,5.85
2023-03-02T16:33:51.149Z,5.85
2023-03-02T16:36:22.642Z,6.11
2023-03-02T16:38:53.517Z,6.06
2023-03-02T16:41:24.002Z,6.29
2023-03-02T16:43:54.929Z,6.47
2023-03-02T16:46:26.503Z,6.65
2023-03-02T16:49:16.523Z,6.71
2023-03-02T16:51:45.947Z,6.92
2023-03-02T16:54:20.370Z,7.07
2023-03-02T16:56:51.038Z,7.08
2023-03-02T16:59:25.850Z,7.41
2023-03-02T17:01:55.371Z,7.56
2023-03-02T17:04:25.799Z,7.71
2023-03-02T17:07:00.727Z,7.79
2023-03-02T17:09:32.487Z,7.82
2023-03-02T17:12:02.656Z,7.95
2023-03-02T17:14:32.543Z,8.14
2023-03-02T17:17:05.354Z,8.19
2023-03-02T17:19:34.660Z,8.18
2023-03-02T17:22:04.603Z,8.13
2023-03-02T17:24:37.024Z,8.12
2023-03-02T17:27:15.851Z,8.10
2023-03-02T17:29:53.023Z,8.06
2023-03-02T17:32:23.332Z,8.24
2023-03-02T17:34:53.603Z,8.31
2023-03-02T17:37:23.215Z,8.43
2023-03-02T17:39:53.222Z,8.46
2023-03-02T17:42:25.284Z,8.42
2023-03-02T17:44:54.888Z,8.49
2023-03-02T17:47:24.345Z,8.50
2023-03-02T17:49:55.748Z,8.49
2023-03-02T17:52:26.724Z,8.56
2023-03-02T17:55:00.105Z,8.66
2023-03-02T17:57:29.688Z,8.76
2023-03-02T17:59:59.468Z,8.75
2023-03-02T18:02:40.052Z,8.85
2023-03-02T18:05:11.343Z,8.93
2023-03-02T18:07:40.920Z,8.84
2023-03-02T18:10:12.822Z,9.01
2023-03-02T18:12:43.410Z,9.06
2023-03-02T18:15:13.503Z,9.11
2023-03-02T18:17:45.923Z,9.21
2023-03-02T18:20:15.214Z,9.32
2023-03-02T18:22:44.844Z,9.25
2023-03-02T18:25:17.480Z,9.14
2023-03-02T18:29:23.269Z,10.98
2023-03-02T18:31:55.455Z,9.26
2023-03-02T18:34:25.399Z,9.20
2023-03-02T18:36:56.422Z,9.22
2023-03-02T18:39:26.542Z,9.26
2023-03-02T18:41:57.232Z,9.18
2023-03-02T18:44:28.784Z,9.09
2023-03-02T18:47:03.305Z,9.07
2023-03-02T18:49:34.313Z,9.15
2023-03-02T18:52:11.635Z,9.01
2023-03-02T18:54:44.860Z,8.96
2023-03-02T18:57:15.233Z,8.96
2023-03-02T18:59:45.158Z,8.72
2023-03-02T19:02:15.528Z,8.91
2023-03-02T19:04:45.249Z,8.94
2023-03-02T19:07:16.638Z,8.78
2023-03-02T19:09:45.907Z,8.90
2023-03-02T19:12:18.325Z,9.00
2023-03-02T19:14:49.513Z,8.92
2023-03-02T19:17:18.958Z,9.06
2023-03-02T19:19:53.856Z,8.86
2023-03-02T19:22:24.368Z,8.85
2023-03-02T19:24:55.707Z,8.97
2023-03-02T19:27:29.705Z,9.13
2023-03-02T19:30:00.230Z,9.06
2023-03-02T19:32:29.895Z,8.80
2023-03-02T19:35:00.133Z,9.14
2023-03-02T19:37:29.871Z,8.92
2023-03-02T19:39:59.972Z,8.82
2023-03-02T19:42:35.685Z,8.97
2023-03-02T19:45:06.784Z,8.82
2023-03-02T19:47:37.899Z,8.79
2023-03-02T19:50:28.929Z,8.88
2023-03-02T19:53:01.185Z,8.99
2023-03-02T19:55:35.006Z,8.97
2023-03-02T19:58:08.384Z,9.09
2023-03-02T20:00:40.068Z,8.96
2023-03-02T20:03:11.304Z,8.97
2023-03-02T20:05:43.882Z,9.01
2023-03-02T20:08:15.863Z,8.82
2023-03-02T20:10:53.540Z,8.91
2023-03-02T20:13:26.808Z,8.80
2023-03-02T20:15:57.032Z,8.84
2023-03-02T20:18:27.063Z,8.94
2023-03-02T20:20:59.440Z,8.90
2023-03-02T20:23:30.060Z,8.99
2023-03-02T20:25:59.974Z,8.98
2023-03-02T20:28:30.834Z,8.98
2023-03-02T20:31:02.913Z,8.99
2023-03-02T20:33:34.534Z,8.97
2023-03-02T20:36:14.994Z,8.77
2023-03-02T20:38:48.279Z,8.98
2023-03-02T20:41:17.814Z,9.06
2023-03-02T20:43:48.715Z,9.13
2023-03-02T20:46:26.455Z,9.27
2023-03-02T20:48:59.255Z,9.23
2023-03-02T20:51:30.815Z,9.28
2023-03-02T20:54:01.608Z,9.24
2023-03-02T20:56:34.706Z,9.21
2023-03-02T20:59:05.432Z,9.31
2023-03-02T21:01:34.908Z,9.32
2023-03-02T21:04:04.622Z,9.27
2023-03-02T21:06:35.523Z,9.45
2023-03-02T21:09:06.502Z,9.30
2023-03-02T21:11:43.363Z,9.26
2023-03-02T21:14:17.095Z,9.32
2023-03-02T21:16:46.603Z,9.26
2023-03-02T21:19:18.733Z,9.02
2023-03-02T21:21:48.923Z,9.10
2023-03-02T21:24:18.424Z,9.12
2023-03-02T21:26:49.789Z,9.32
2023-03-02T21:29:21.311Z,9.37
2023-03-02T21:31:53.077Z,9.53
2023-03-02T21:34:24.305Z,9.60
2023-03-02T21:36:59.438Z,9.62
2023-03-02T21:39:33.344Z,9.73
2023-03-02T21:42:03.645Z,9.79
2023-03-02T21:44:33.536Z,9.79
2023-03-02T21:47:02.685Z,9.81
2023-03-02T21:49:32.937Z,9.82
2023-03-02T21:52:02.110Z,9.76
2023-03-02T21:54:32.688Z,9.71
2023-03-02T21:57:03.356Z,9.82
2023-03-02T21:59:38.279Z,9.93
2023-03-02T22:02:08.326Z,10.08
2023-03-02T22:04:39.506Z,10.03
2023-03-02T22:07:09.676Z,10.06
2023-03-02T22:09:44.769Z,9.89
2023-03-02T22:12:14.627Z,9.95
2023-03-02T22:14:44.441Z,9.95
2023-03-02T22:17:24.696Z,9.88
2023-03-02T22:19:56.446Z,9.95
2023-03-02T22:22:35.786Z,9.95
2023-03-02T22:25:16.150Z,9.92
2023-03-02T22:27:47.524Z,9.98
2023-03-02T22:30:25.051Z,9.88
2023-03-02T22:33:00.327Z,9.83
2023-03-02T22:35:32.431Z,9.88
2023-03-02T22:38:07.208Z,9.86
2023-03-02T22:40:42.084Z,9.89
2023-03-02T22:43:12.749Z,9.86
2023-03-02T22:45:42.499Z,9.92
2023-03-02T22:48:18.151Z,10.04
2023-03-02T22:50:49.672Z,10.10
2023-03-02T22:53:32.813Z,10.08
2023-03-02T22:56:03.304Z,10.16
2023-03-02T23:02:04.131Z,10.18
2023-03-02T23:04:37.929Z,10.44
2023-03-02T23:07:19.224Z,10.37
2023-03-02T23:09:49.293Z,10.20
2023-03-02T23:12:28.266Z,10.27
2023-03-02T23:14:58.688Z,10.28
2023-03-02T23:17:39.862Z,10.29
2023-03-02T23:20:11.215Z,10.29
2023-03-02T23:22:40.973Z,10.41
2023-03-02T23:25:10.643Z,10.25
2023-03-02T23:27:41.655Z,10.12
2023-03-02T23:30:12.289Z,10.11
2023-03-02T23:32:41.722Z,9.97
2023-03-02T23:35:10.700Z,10.07
2023-03-02T23:37:39.981Z,10.08
2023-03-02T23:40:10.580Z,10.26
2023-03-02T23:42:40.017Z,10.30
2023-03-02T23:45:10.433Z,10.33
2023-03-02T23:47:41.297Z,10.37
2023-03-02T23:54:22.394Z,10.07
2023-03-02T23:56:51.175Z,10.02
2023-03-02T23:59:20.654Z,9.78
